sensor_id;sensor_type;location;lat;lon;timestamp;temperature;humidity
11140;DHT22;5624;49.388;11.350;2024-03-22T00:01:48;5.00;99.90
11140;DHT22;5624;49.388;11.350;2024-03-22T00:04:14;5.00;99.90
11140;DHT22;5624;49.388;11.350;2024-03-22T00:06:44;4.90;99.90
11140;DHT22;5624;49.388;11.350;2024-03-22T00:09:10;4.90;99.90
11140;DHT22;5624;49.388;11.350;2024-03-22T00:11:36;5.00;99.90
11140;DHT22;5624;49.388;11.350;2024-03-22T00:14:02;5.00;99.90
11140;DHT22;5624;49.388;11.350;2024-03-22T00:16:28;5.00;99.90
11140;DHT22;5624;49.388;11.350;2024-03-22T00:18:54;5.00;99.90
11140;DHT22;5624;49.388;11.350;2024-03-22T00:21:21;4.90;99.90
11140;DHT22;5624;49.388;11.350;2024-03-22T00:23:46;4.90;99.90
11140;DHT22;5624;49.388;11.350;2024-03-22T00:26:12;4.90;99.90
11140;DHT22;5624;49.388;11.350;2024-03-22T00:28:38;4.80;99.90
11140;DHT22;5624;49.388;11.350;2024-03-22T00:31:03;4.80;99.90
11140;DHT22;5624;49.388;11.350;2024-03-22T00:33:29;4.70;99.90
11140;DHT22;5624;49.388;11.350;2024-03-22T00:35:54;4.60;99.90
11140;DHT22;5624;49.388;11.350;2024-03-22T00:38:20;4.50;99.90
11140;DHT22;5624;49.388;11.350;2024-03-22T00:40:45;4.40;99.90
11140;DHT22;5624;49.388;11.350;2024-03-22T00:43:11;4.20;99.90
11140;DHT22;5624;49.388;11.350;2024-03-22T00:45:36;4.10;99.90
11140;DHT22;5624;49.388;11.350;2024-03-22T00:48:02;4.00;99.90
11140;DHT22;5624;49.388;11.350;2024-03-22T00:50:27;4.00;99.90
11140;DHT22;5624;49.388;11.350;2024-03-22T00:52:54;4.00;99.90
11140;DHT22;5624;49.388;11.350;2024-03-22T00:55:23;3.90;99.90
11140;DHT22;5624;49.388;11.350;2024-03-22T00:57:49;3.90;99.90
11140;DHT22;5624;49.388;11.350;2024-03-22T01:00:15;3.80;99.90
11140;DHT22;5624;49.388;11.350;2024-03-22T01:02:42;3.80;99.90
11140;DHT22;5624;49.388;11.350;2024-03-22T01:05:08;3.90;99.90
11140;DHT22;5624;49.388;11.350;2024-03-22T01:07:33;3.90;99.90
11140;DHT22;5624;49.388;11.350;2024-03-22T01:09:59;3.90;99.90
11140;DHT22;5624;49.388;11.350;2024-03-22T01:12:24;3.80;99.90
11140;DHT22;5624;49.388;11.350;2024-03-22T01:14:50;3.90;99.90
11140;DHT22;5624;49.388;11.350;2024-03-22T01:17:16;3.90;99.90
11140;DHT22;5624;49.388;11.350;2024-03-22T01:19:41;4.00;99.90
11140;DHT22;5624;49.388;11.350;2024-03-22T01:22:07;4.00;99.90
11140;DHT22;5624;49.388;11.350;2024-03-22T01:24:32;4.00;99.90
11140;DHT22;5624;49.388;11.350;2024-03-22T01:26:58;4.00;99.90
11140;DHT22;5624;49.388;11.350;2024-03-22T01:29:23;4.00;99.90
11140;DHT22;5624;49.388;11.350;2024-03-22T01:31:49;3.90;99.90
11140;DHT22;5624;49.388;11.350;2024-03-22T01:34:14;3.90;99.90
11140;DHT22;5624;49.388;11.350;2024-03-22T01:36:40;3.90;99.90
11140;DHT22;5624;49.388;11.350;2024-03-22T01:39:05;3.80;99.90
11140;DHT22;5624;49.388;11.350;2024-03-22T01:41:31;3.80;99.90
11140;DHT22;5624;49.388;11.350;2024-03-22T01:43:57;3.90;99.90
11140;DHT22;5624;49.388;11.350;2024-03-22T01:46:23;3.90;99.90
11140;DHT22;5624;49.388;11.350;2024-03-22T01:48:49;3.80;99.90
11140;DHT22;5624;49.388;11.350;2024-03-22T01:51:15;3.80;99.90
11140;DHT22;5624;49.388;11.350;2024-03-22T01:53:41;3.70;99.90
11140;DHT22;5624;49.388;11.350;2024-03-22T01:56:07;3.70;99.90
11140;DHT22;5624;49.388;11.350;2024-03-22T01:58:33;3.70;99.90
11140;DHT22;5624;49.388;11.350;2024-03-22T02:00:58;3.70;99.90
11140;DHT22;5624;49.388;11.350;2024-03-22T02:03:24;3.70;99.90
11140;DHT22;5624;49.388;11.350;2024-03-22T02:05:50;3.70;99.90
11140;DHT22;5624;49.388;11.350;2024-03-22T02:08:15;3.60;99.90
11140;DHT22;5624;49.388;11.350;2024-03-22T02:10:41;3.60;99.90
11140;DHT22;5624;49.388;11.350;2024-03-22T02:13:07;3.60;99.90
11140;DHT22;5624;49.388;11.350;2024-03-22T02:15:32;3.70;99.90
11140;DHT22;5624;49.388;11.350;2024-03-22T02:17:58;3.70;99.90
11140;DHT22;5624;49.388;11.350;2024-03-22T02:20:24;3.70;99.90
11140;DHT22;5624;49.388;11.350;2024-03-22T02:22:49;3.70;99.90
11140;DHT22;5624;49.388;11.350;2024-03-22T02:25:15;3.60;99.90
11140;DHT22;5624;49.388;11.350;2024-03-22T02:27:41;3.50;99.90
11140;DHT22;5624;49.388;11.350;2024-03-22T02:30:07;3.50;99.90
11140;DHT22;5624;49.388;11.350;2024-03-22T02:32:33;3.50;99.90
11140;DHT22;5624;49.388;11.350;2024-03-22T02:34:58;3.50;99.90
11140;DHT22;5624;49.388;11.350;2024-03-22T02:37:24;3.60;99.90
11140;DHT22;5624;49.388;11.350;2024-03-22T02:39:49;3.60;99.90
11140;DHT22;5624;49.388;11.350;2024-03-22T02:42:15;3.50;99.90
11140;DHT22;5624;49.388;11.350;2024-03-22T02:44:40;3.50;99.90
11140;DHT22;5624;49.388;11.350;2024-03-22T02:47:11;3.50;99.90
11140;DHT22;5624;49.388;11.350;2024-03-22T02:49:38;3.60;99.90
11140;DHT22;5624;49.388;11.350;2024-03-22T02:52:04;3.60;99.90
11140;DHT22;5624;49.388;11.350;2024-03-22T02:54:29;3.70;99.90
11140;DHT22;5624;49.388;11.350;2024-03-22T02:56:55;3.70;99.90
11140;DHT22;5624;49.388;11.350;2024-03-22T02:59:20;3.80;99.90
11140;DHT22;5624;49.388;11.350;2024-03-22T03:01:46;3.90;99.90
11140;DHT22;5624;49.388;11.350;2024-03-22T03:04:11;3.80;99.90
11140;DHT22;5624;49.388;11.350;2024-03-22T03:06:37;3.70;99.90
11140;DHT22;5624;49.388;11.350;2024-03-22T03:09:02;3.70;99.90
11140;DHT22;5624;49.388;11.350;2024-03-22T03:11:30;3.80;99.90
11140;DHT22;5624;49.388;11.350;2024-03-22T03:13:56;3.70;99.90
11140;DHT22;5624;49.388;11.350;2024-03-22T03:16:21;3.70;99.90
11140;DHT22;5624;49.388;11.350;2024-03-22T03:18:47;3.60;99.90
11140;DHT22;5624;49.388;11.350;2024-03-22T03:21:12;3.50;99.90
11140;DHT22;5624;49.388;11.350;2024-03-22T03:23:38;3.40;99.90
11140;DHT22;5624;49.388;11.350;2024-03-22T03:26:03;3.40;99.90
11140;DHT22;5624;49.388;11.350;2024-03-22T03:28:29;3.40;99.90
11140;DHT22;5624;49.388;11.350;2024-03-22T03:30:54;3.40;99.90
11140;DHT22;5624;49.388;11.350;2024-03-22T03:33:20;3.30;99.90
11140;DHT22;5624;49.388;11.350;2024-03-22T03:35:46;3.10;99.90
11140;DHT22;5624;49.388;11.350;2024-03-22T03:38:12;3.10;99.90
11140;DHT22;5624;49.388;11.350;2024-03-22T03:40:38;3.10;99.90
11140;DHT22;5624;49.388;11.350;2024-03-22T03:43:03;3.00;99.90
11140;DHT22;5624;49.388;11.350;2024-03-22T03:45:29;2.90;99.90
11140;DHT22;5624;49.388;11.350;2024-03-22T03:47:54;2.90;99.90
11140;DHT22;5624;49.388;11.350;2024-03-22T03:50:20;3.00;99.90
11140;DHT22;5624;49.388;11.350;2024-03-22T03:52:45;2.90;99.90
11140;DHT22;5624;49.388;11.350;2024-03-22T03:55:11;2.90;99.90
11140;DHT22;5624;49.388;11.350;2024-03-22T03:57:36;2.80;99.90
11140;DHT22;5624;49.388;11.350;2024-03-22T04:00:02;2.80;99.90
11140;DHT22;5624;49.388;11.350;2024-03-22T04:02:28;2.90;99.90
11140;DHT22;5624;49.388;11.350;2024-03-22T04:04:53;2.80;99.90
11140;DHT22;5624;49.388;11.350;2024-03-22T04:07:20;2.80;99.90
11140;DHT22;5624;49.388;11.350;2024-03-22T04:09:46;2.80;99.90
11140;DHT22;5624;49.388;11.350;2024-03-22T04:12:12;2.90;99.90
11140;DHT22;5624;49.388;11.350;2024-03-22T04:14:37;3.00;99.90
11140;DHT22;5624;49.388;11.350;2024-03-22T04:17:03;3.10;99.90
11140;DHT22;5624;49.388;11.350;2024-03-22T04:19:28;3.20;99.90
11140;DHT22;5624;49.388;11.350;2024-03-22T04:21:54;3.20;99.90
11140;DHT22;5624;49.388;11.350;2024-03-22T04:24:19;3.20;99.90
11140;DHT22;5624;49.388;11.350;2024-03-22T04:26:45;3.20;99.90
11140;DHT22;5624;49.388;11.350;2024-03-22T04:29:10;3.10;99.90
11140;DHT22;5624;49.388;11.350;2024-03-22T04:31:36;3.10;99.90
11140;DHT22;5624;49.388;11.350;2024-03-22T04:34:02;3.10;99.90
11140;DHT22;5624;49.388;11.350;2024-03-22T04:36:28;3.00;99.90
11140;DHT22;5624;49.388;11.350;2024-03-22T04:38:53;3.00;99.90
11140;DHT22;5624;49.388;11.350;2024-03-22T04:41:19;3.00;99.90
11140;DHT22;5624;49.388;11.350;2024-03-22T04:43:44;3.00;99.90
11140;DHT22;5624;49.388;11.350;2024-03-22T04:46:10;3.00;99.90
11140;DHT22;5624;49.388;11.350;2024-03-22T04:48:35;3.00;99.90
11140;DHT22;5624;49.388;11.350;2024-03-22T04:51:01;3.00;99.90
11140;DHT22;5624;49.388;11.350;2024-03-22T04:53:26;2.90;99.90
11140;DHT22;5624;49.388;11.350;2024-03-22T04:55:52;2.90;99.90
11140;DHT22;5624;49.388;11.350;2024-03-22T04:58:19;2.90;99.90
11140;DHT22;5624;49.388;11.350;2024-03-22T05:00:46;2.80;99.90
11140;DHT22;5624;49.388;11.350;2024-03-22T05:03:12;2.80;99.90
11140;DHT22;5624;49.388;11.350;2024-03-22T05:05:38;2.80;99.90
11140;DHT22;5624;49.388;11.350;2024-03-22T05:08:05;2.80;99.90
11140;DHT22;5624;49.388;11.350;2024-03-22T05:10:31;2.90;99.90
11140;DHT22;5624;49.388;11.350;2024-03-22T05:12:57;2.80;99.90
11140;DHT22;5624;49.388;11.350;2024-03-22T05:15:23;2.80;99.90
11140;DHT22;5624;49.388;11.350;2024-03-22T05:17:50;2.70;99.90
11140;DHT22;5624;49.388;11.350;2024-03-22T05:20:16;2.70;99.90
11140;DHT22;5624;49.388;11.350;2024-03-22T05:22:42;2.70;99.90
11140;DHT22;5624;49.388;11.350;2024-03-22T05:25:08;2.70;99.90
11140;DHT22;5624;49.388;11.350;2024-03-22T05:27:34;2.80;99.90
11140;DHT22;5624;49.388;11.350;2024-03-22T05:30:00;2.70;99.90
11140;DHT22;5624;49.388;11.350;2024-03-22T05:32:26;2.70;99.90
11140;DHT22;5624;49.388;11.350;2024-03-22T05:34:52;2.80;99.90
11140;DHT22;5624;49.388;11.350;2024-03-22T05:37:17;2.80;99.90
11140;DHT22;5624;49.388;11.350;2024-03-22T05:39:43;2.90;99.90
11140;DHT22;5624;49.388;11.350;2024-03-22T05:42:09;2.90;99.90
11140;DHT22;5624;49.388;11.350;2024-03-22T05:44:34;3.00;99.90
11140;DHT22;5624;49.388;11.350;2024-03-22T05:47:00;3.00;99.90
11140;DHT22;5624;49.388;11.350;2024-03-22T05:49:26;3.10;99.90
11140;DHT22;5624;49.388;11.350;2024-03-22T05:51:52;3.10;99.90
11140;DHT22;5624;49.388;11.350;2024-03-22T05:54:17;3.20;99.90
11140;DHT22;5624;49.388;11.350;2024-03-22T05:56:43;3.30;99.90
11140;DHT22;5624;49.388;11.350;2024-03-22T05:59:08;3.40;99.90
11140;DHT22;5624;49.388;11.350;2024-03-22T06:01:35;3.60;99.90
11140;DHT22;5624;49.388;11.350;2024-03-22T06:04:01;3.70;99.90
11140;DHT22;5624;49.388;11.350;2024-03-22T06:06:26;3.80;99.90
11140;DHT22;5624;49.388;11.350;2024-03-22T06:08:52;3.90;99.90
11140;DHT22;5624;49.388;11.350;2024-03-22T06:11:19;4.00;99.90
11140;DHT22;5624;49.388;11.350;2024-03-22T06:13:46;4.20;99.90
11140;DHT22;5624;49.388;11.350;2024-03-22T06:16:11;4.40;99.90
11140;DHT22;5624;49.388;11.350;2024-03-22T06:18:37;4.50;99.90
11140;DHT22;5624;49.388;11.350;2024-03-22T06:21:03;4.70;99.90
11140;DHT22;5624;49.388;11.350;2024-03-22T06:23:28;4.90;99.90
11140;DHT22;5624;49.388;11.350;2024-03-22T06:25:55;5.10;99.90
11140;DHT22;5624;49.388;11.350;2024-03-22T06:28:21;5.30;99.90
11140;DHT22;5624;49.388;11.350;2024-03-22T06:30:47;5.60;99.90
11140;DHT22;5624;49.388;11.350;2024-03-22T06:33:13;6.80;99.90
11140;DHT22;5624;49.388;11.350;2024-03-22T06:35:39;7.90;99.90
11140;DHT22;5624;49.388;11.350;2024-03-22T06:38:04;8.30;99.90
11140;DHT22;5624;49.388;11.350;2024-03-22T06:40:30;9.30;97.90
11140;DHT22;5624;49.388;11.350;2024-03-22T06:42:56;9.90;91.80
11140;DHT22;5624;49.388;11.350;2024-03-22T06:45:22;10.70;88.00
11140;DHT22;5624;49.388;11.350;2024-03-22T06:47:47;11.00;85.40
11140;DHT22;5624;49.388;11.350;2024-03-22T06:50:13;11.00;84.90
11140;DHT22;5624;49.388;11.350;2024-03-22T06:52:38;11.40;83.80
11140;DHT22;5624;49.388;11.350;2024-03-22T06:55:04;11.80;80.90
11140;DHT22;5624;49.388;11.350;2024-03-22T06:57:30;12.30;77.00
11140;DHT22;5624;49.388;11.350;2024-03-22T06:59:56;12.60;76.30
11140;DHT22;5624;49.388;11.350;2024-03-22T07:02:21;13.00;73.50
11140;DHT22;5624;49.388;11.350;2024-03-22T07:04:46;13.60;70.90
11140;DHT22;5624;49.388;11.350;2024-03-22T07:07:12;13.90;74.70
11140;DHT22;5624;49.388;11.350;2024-03-22T07:09:38;14.00;70.40
11140;DHT22;5624;49.388;11.350;2024-03-22T07:12:03;13.60;71.40
11140;DHT22;5624;49.388;11.350;2024-03-22T07:14:29;13.10;70.50
11140;DHT22;5624;49.388;11.350;2024-03-22T07:16:55;12.60;73.00
11140;DHT22;5624;49.388;11.350;2024-03-22T07:19:20;11.90;74.60
11140;DHT22;5624;49.388;11.350;2024-03-22T07:21:47;11.50;75.50
11140;DHT22;5624;49.388;11.350;2024-03-22T07:24:12;11.00;80.00
11140;DHT22;5624;49.388;11.350;2024-03-22T07:26:38;10.60;81.70
11140;DHT22;5624;49.388;11.350;2024-03-22T07:29:04;10.30;84.60
11140;DHT22;5624;49.388;11.350;2024-03-22T07:31:30;10.10;87.30
11140;DHT22;5624;49.388;11.350;2024-03-22T07:33:55;10.10;87.90
11140;DHT22;5624;49.388;11.350;2024-03-22T07:36:21;10.10;88.80
11140;DHT22;5624;49.388;11.350;2024-03-22T07:38:47;10.20;88.90
11140;DHT22;5624;49.388;11.350;2024-03-22T07:41:14;10.30;88.70
11140;DHT22;5624;49.388;11.350;2024-03-22T07:43:40;10.10;88.90
11140;DHT22;5624;49.388;11.350;2024-03-22T07:46:05;10.20;88.70
11140;DHT22;5624;49.388;11.350;2024-03-22T07:48:31;10.20;89.50
11140;DHT22;5624;49.388;11.350;2024-03-22T07:51:01;10.10;90.80
11140;DHT22;5624;49.388;11.350;2024-03-22T07:53:27;10.10;93.00
11140;DHT22;5624;49.388;11.350;2024-03-22T07:55:52;10.20;92.50
11140;DHT22;5624;49.388;11.350;2024-03-22T07:58:19;10.30;92.60
11140;DHT22;5624;49.388;11.350;2024-03-22T08:00:44;10.40;90.70
11140;DHT22;5624;49.388;11.350;2024-03-22T08:03:14;10.50;90.80
11140;DHT22;5624;49.388;11.350;2024-03-22T08:05:40;10.70;90.50
11140;DHT22;5624;49.388;11.350;2024-03-22T08:08:06;10.90;89.20
11140;DHT22;5624;49.388;11.350;2024-03-22T08:10:32;11.10;88.60
11140;DHT22;5624;49.388;11.350;2024-03-22T08:12:57;11.20;86.00
11140;DHT22;5624;49.388;11.350;2024-03-22T08:15:23;11.40;85.00
11140;DHT22;5624;49.388;11.350;2024-03-22T08:17:48;11.20;83.80
11140;DHT22;5624;49.388;11.350;2024-03-22T08:20:14;11.20;82.90
11140;DHT22;5624;49.388;11.350;2024-03-22T08:22:40;11.30;83.00
11140;DHT22;5624;49.388;11.350;2024-03-22T08:25:05;11.60;82.20
11140;DHT22;5624;49.388;11.350;2024-03-22T08:27:33;11.70;81.20
11140;DHT22;5624;49.388;11.350;2024-03-22T08:30:00;12.00;81.60
11140;DHT22;5624;49.388;11.350;2024-03-22T08:32:25;12.10;80.10
11140;DHT22;5624;49.388;11.350;2024-03-22T08:34:51;12.20;81.10
11140;DHT22;5624;49.388;11.350;2024-03-22T08:37:16;12.30;79.70
11140;DHT22;5624;49.388;11.350;2024-03-22T08:39:42;12.30;80.90
11140;DHT22;5624;49.388;11.350;2024-03-22T08:42:08;12.10;81.70
11140;DHT22;5624;49.388;11.350;2024-03-22T08:44:35;12.20;81.10
11140;DHT22;5624;49.388;11.350;2024-03-22T08:47:00;12.20;81.30
11140;DHT22;5624;49.388;11.350;2024-03-22T08:49:26;12.30;79.70
11140;DHT22;5624;49.388;11.350;2024-03-22T08:51:51;12.30;80.40
11140;DHT22;5624;49.388;11.350;2024-03-22T08:54:17;12.50;79.20
11140;DHT22;5624;49.388;11.350;2024-03-22T08:56:42;12.60;80.80
11140;DHT22;5624;49.388;11.350;2024-03-22T08:59:08;12.70;78.00
11140;DHT22;5624;49.388;11.350;2024-03-22T09:01:33;12.80;79.40
11140;DHT22;5624;49.388;11.350;2024-03-22T09:03:59;12.70;79.00
11140;DHT22;5624;49.388;11.350;2024-03-22T09:06:24;12.70;77.70
11140;DHT22;5624;49.388;11.350;2024-03-22T09:08:50;12.50;78.00
11140;DHT22;5624;49.388;11.350;2024-03-22T09:11:16;12.20;77.90
11140;DHT22;5624;49.388;11.350;2024-03-22T09:13:41;12.10;78.50
11140;DHT22;5624;49.388;11.350;2024-03-22T09:16:07;12.20;79.00
11140;DHT22;5624;49.388;11.350;2024-03-22T09:18:32;12.40;78.90
11140;DHT22;5624;49.388;11.350;2024-03-22T09:20:58;12.30;79.60
11140;DHT22;5624;49.388;11.350;2024-03-22T09:23:24;12.50;79.30
11140;DHT22;5624;49.388;11.350;2024-03-22T09:25:49;12.70;77.60
11140;DHT22;5624;49.388;11.350;2024-03-22T09:28:15;13.20;78.20
11140;DHT22;5624;49.388;11.350;2024-03-22T09:30:41;13.90;77.80
11140;DHT22;5624;49.388;11.350;2024-03-22T09:33:08;14.00;77.00
11140;DHT22;5624;49.388;11.350;2024-03-22T09:35:34;14.00;75.80
11140;DHT22;5624;49.388;11.350;2024-03-22T09:38:00;13.70;75.40
11140;DHT22;5624;49.388;11.350;2024-03-22T09:40:26;13.80;75.20
11140;DHT22;5624;49.388;11.350;2024-03-22T09:42:53;14.10;75.20
11140;DHT22;5624;49.388;11.350;2024-03-22T09:45:19;14.80;75.60
11140;DHT22;5624;49.388;11.350;2024-03-22T09:47:47;15.10;73.30
11140;DHT22;5624;49.388;11.350;2024-03-22T09:50:14;15.70;73.00
11140;DHT22;5624;49.388;11.350;2024-03-22T09:52:41;16.70;70.10
11140;DHT22;5624;49.388;11.350;2024-03-22T09:55:08;17.20;65.40
11140;DHT22;5624;49.388;11.350;2024-03-22T09:57:38;17.70;65.20
11140;DHT22;5624;49.388;11.350;2024-03-22T10:00:06;17.90;62.80
11140;DHT22;5624;49.388;11.350;2024-03-22T10:02:33;18.60;62.60
11140;DHT22;5624;49.388;11.350;2024-03-22T10:04:59;18.80;57.70
11140;DHT22;5624;49.388;11.350;2024-03-22T10:07:25;19.10;56.90
11140;DHT22;5624;49.388;11.350;2024-03-22T10:10:00;19.10;56.90
11140;DHT22;5624;49.388;11.350;2024-03-22T10:12:26;19.50;57.00
11140;DHT22;5624;49.388;11.350;2024-03-22T10:14:54;19.30;54.90
11140;DHT22;5624;49.388;11.350;2024-03-22T10:17:21;19.10;55.90
11140;DHT22;5624;49.388;11.350;2024-03-22T10:19:48;19.50;55.10
11140;DHT22;5624;49.388;11.350;2024-03-22T10:22:16;19.10;57.60
11140;DHT22;5624;49.388;11.350;2024-03-22T10:24:44;19.10;52.40
11140;DHT22;5624;49.388;11.350;2024-03-22T10:27:10;19.00;55.50
11140;DHT22;5624;49.388;11.350;2024-03-22T10:29:36;19.00;53.60
11140;DHT22;5624;49.388;11.350;2024-03-22T10:32:02;19.00;53.20
11140;DHT22;5624;49.388;11.350;2024-03-22T10:34:28;19.30;55.00
11140;DHT22;5624;49.388;11.350;2024-03-22T10:37:00;19.70;52.70
11140;DHT22;5624;49.388;11.350;2024-03-22T10:39:26;20.10;51.20
11140;DHT22;5624;49.388;11.350;2024-03-22T10:41:52;20.60;49.80
11140;DHT22;5624;49.388;11.350;2024-03-22T10:44:18;21.10;45.10
11140;DHT22;5624;49.388;11.350;2024-03-22T10:46:45;21.00;43.60
11140;DHT22;5624;49.388;11.350;2024-03-22T10:49:15;21.00;45.20
11140;DHT22;5624;49.388;11.350;2024-03-22T10:52:01;21.20;40.80
11140;DHT22;5624;49.388;11.350;2024-03-22T10:54:39;20.90;43.20
11140;DHT22;5624;49.388;11.350;2024-03-22T10:57:07;20.40;47.40
11140;DHT22;5624;49.388;11.350;2024-03-22T10:59:36;20.10;45.00
11140;DHT22;5624;49.388;11.350;2024-03-22T11:02:03;19.70;46.30
11140;DHT22;5624;49.388;11.350;2024-03-22T11:04:30;19.30;49.10
11140;DHT22;5624;49.388;11.350;2024-03-22T11:06:57;19.10;48.60
11140;DHT22;5624;49.388;11.350;2024-03-22T11:09:26;19.00;49.90
11140;DHT22;5624;49.388;11.350;2024-03-22T11:11:52;19.30;46.20
11140;DHT22;5624;49.388;11.350;2024-03-22T11:14:18;19.70;45.70
11140;DHT22;5624;49.388;11.350;2024-03-22T11:16:48;19.70;44.40
11140;DHT22;5624;49.388;11.350;2024-03-22T11:19:14;19.70;43.70
11140;DHT22;5624;49.388;11.350;2024-03-22T11:21:40;20.00;47.30
11140;DHT22;5624;49.388;11.350;2024-03-22T11:24:05;20.40;45.90
11140;DHT22;5624;49.388;11.350;2024-03-22T11:26:32;20.40;43.30
11140;DHT22;5624;49.388;11.350;2024-03-22T11:28:58;20.80;42.80
11140;DHT22;5624;49.388;11.350;2024-03-22T11:31:24;20.60;42.40
11140;DHT22;5624;49.388;11.350;2024-03-22T11:33:56;20.30;42.10
11140;DHT22;5624;49.388;11.350;2024-03-22T11:36:24;20.50;42.30
11140;DHT22;5624;49.388;11.350;2024-03-22T11:38:50;20.90;37.40
11140;DHT22;5624;49.388;11.350;2024-03-22T11:41:21;20.40;37.20
11140;DHT22;5624;49.388;11.350;2024-03-22T11:43:49;19.90;38.00
11140;DHT22;5624;49.388;11.350;2024-03-22T11:46:15;19.60;39.20
11140;DHT22;5624;49.388;11.350;2024-03-22T11:48:41;19.80;39.20
11140;DHT22;5624;49.388;11.350;2024-03-22T11:51:08;19.50;41.10
11140;DHT22;5624;49.388;11.350;2024-03-22T11:53:35;19.50;41.20
11140;DHT22;5624;49.388;11.350;2024-03-22T11:56:00;19.50;41.30
11140;DHT22;5624;49.388;11.350;2024-03-22T11:58:29;19.30;43.70
11140;DHT22;5624;49.388;11.350;2024-03-22T12:00:58;18.90;43.40
11140;DHT22;5624;49.388;11.350;2024-03-22T12:03:24;18.80;44.00
11140;DHT22;5624;49.388;11.350;2024-03-22T12:05:49;19.00;45.10
11140;DHT22;5624;49.388;11.350;2024-03-22T12:08:18;19.00;44.40
11140;DHT22;5624;49.388;11.350;2024-03-22T12:10:43;19.20;44.40
11140;DHT22;5624;49.388;11.350;2024-03-22T12:13:09;19.50;44.10
11140;DHT22;5624;49.388;11.350;2024-03-22T12:15:35;20.00;44.20
11140;DHT22;5624;49.388;11.350;2024-03-22T12:18:01;20.00;40.10
11140;DHT22;5624;49.388;11.350;2024-03-22T12:20:27;20.10;40.20
11140;DHT22;5624;49.388;11.350;2024-03-22T12:22:53;20.10;43.10
11140;DHT22;5624;49.388;11.350;2024-03-22T12:25:18;19.90;39.20
11140;DHT22;5624;49.388;11.350;2024-03-22T12:27:45;19.90;38.20
11140;DHT22;5624;49.388;11.350;2024-03-22T12:30:11;19.90;41.90
11140;DHT22;5624;49.388;11.350;2024-03-22T12:32:37;20.00;41.30
11140;DHT22;5624;49.388;11.350;2024-03-22T12:35:03;20.10;42.70
11140;DHT22;5624;49.388;11.350;2024-03-22T12:37:29;20.00;36.10
11140;DHT22;5624;49.388;11.350;2024-03-22T12:39:54;20.00;36.10
11140;DHT22;5624;49.388;11.350;2024-03-22T12:42:20;20.20;36.00
11140;DHT22;5624;49.388;11.350;2024-03-22T12:44:46;20.40;35.60
11140;DHT22;5624;49.388;11.350;2024-03-22T12:47:11;20.20;38.30
11140;DHT22;5624;49.388;11.350;2024-03-22T12:49:37;20.30;37.10
11140;DHT22;5624;49.388;11.350;2024-03-22T12:52:02;20.00;35.00
11140;DHT22;5624;49.388;11.350;2024-03-22T12:54:29;19.80;37.60
11140;DHT22;5624;49.388;11.350;2024-03-22T12:56:54;19.60;34.40
11140;DHT22;5624;49.388;11.350;2024-03-22T12:59:20;19.60;36.30
11140;DHT22;5624;49.388;11.350;2024-03-22T13:01:46;19.70;34.00
11140;DHT22;5624;49.388;11.350;2024-03-22T13:04:12;19.60;34.00
11140;DHT22;5624;49.388;11.350;2024-03-22T13:06:38;19.40;33.90
11140;DHT22;5624;49.388;11.350;2024-03-22T13:09:03;19.20;35.40
11140;DHT22;5624;49.388;11.350;2024-03-22T13:11:31;19.10;35.70
11140;DHT22;5624;49.388;11.350;2024-03-22T13:13:57;19.20;33.10
11140;DHT22;5624;49.388;11.350;2024-03-22T13:16:22;19.20;35.90
11140;DHT22;5624;49.388;11.350;2024-03-22T13:18:48;19.10;34.90
11140;DHT22;5624;49.388;11.350;2024-03-22T13:21:14;19.10;35.20
11140;DHT22;5624;49.388;11.350;2024-03-22T13:23:39;18.70;36.90
11140;DHT22;5624;49.388;11.350;2024-03-22T13:26:05;18.40;37.20
11140;DHT22;5624;49.388;11.350;2024-03-22T13:28:32;18.20;37.80
11140;DHT22;5624;49.388;11.350;2024-03-22T13:31:03;18.20;38.40
11140;DHT22;5624;49.388;11.350;2024-03-22T13:33:33;18.30;39.30
11140;DHT22;5624;49.388;11.350;2024-03-22T13:35:58;18.00;38.50
11140;DHT22;5624;49.388;11.350;2024-03-22T13:38:24;18.00;38.80
11140;DHT22;5624;49.388;11.350;2024-03-22T13:40:57;17.90;39.70
11140;DHT22;5624;49.388;11.350;2024-03-22T13:43:26;17.80;39.70
11140;DHT22;5624;49.388;11.350;2024-03-22T13:45:52;17.70;40.40
11140;DHT22;5624;49.388;11.350;2024-03-22T13:48:24;17.70;41.80
11140;DHT22;5624;49.388;11.350;2024-03-22T13:50:54;17.40;41.70
11140;DHT22;5624;49.388;11.350;2024-03-22T13:53:20;17.30;42.40
11140;DHT22;5624;49.388;11.350;2024-03-22T13:55:52;17.20;42.80
11140;DHT22;5624;49.388;11.350;2024-03-22T13:58:21;17.00;41.90
11140;DHT22;5624;49.388;11.350;2024-03-22T14:00:46;16.90;44.20
11140;DHT22;5624;49.388;11.350;2024-03-22T14:03:12;16.90;43.90
11140;DHT22;5624;49.388;11.350;2024-03-22T14:05:38;16.90;44.10
11140;DHT22;5624;49.388;11.350;2024-03-22T14:08:04;16.90;43.70
11140;DHT22;5624;49.388;11.350;2024-03-22T14:10:30;17.10;43.50
11140;DHT22;5624;49.388;11.350;2024-03-22T14:12:58;17.30;43.90
11140;DHT22;5624;49.388;11.350;2024-03-22T14:15:25;17.60;43.90
11140;DHT22;5624;49.388;11.350;2024-03-22T14:17:52;17.80;43.10
11140;DHT22;5624;49.388;11.350;2024-03-22T14:20:17;18.20;41.10
11140;DHT22;5624;49.388;11.350;2024-03-22T14:22:44;18.20;40.80
11140;DHT22;5624;49.388;11.350;2024-03-22T14:25:09;18.60;41.30
11140;DHT22;5624;49.388;11.350;2024-03-22T14:27:36;18.70;40.90
11140;DHT22;5624;49.388;11.350;2024-03-22T14:30:03;18.80;40.40
11140;DHT22;5624;49.388;11.350;2024-03-22T14:32:34;18.70;38.70
11140;DHT22;5624;49.388;11.350;2024-03-22T14:34:59;18.60;39.40
11140;DHT22;5624;49.388;11.350;2024-03-22T14:37:25;18.60;40.00
11140;DHT22;5624;49.388;11.350;2024-03-22T14:39:51;18.40;39.40
11140;DHT22;5624;49.388;11.350;2024-03-22T14:42:16;18.20;40.20
11140;DHT22;5624;49.388;11.350;2024-03-22T14:44:42;18.10;40.90
11140;DHT22;5624;49.388;11.350;2024-03-22T14:47:08;18.00;41.70
11140;DHT22;5624;49.388;11.350;2024-03-22T14:49:33;17.90;40.10
11140;DHT22;5624;49.388;11.350;2024-03-22T14:51:59;17.90;42.00
11140;DHT22;5624;49.388;11.350;2024-03-22T14:54:25;17.80;41.40
11140;DHT22;5624;49.388;11.350;2024-03-22T14:56:51;17.70;41.40
11140;DHT22;5624;49.388;11.350;2024-03-22T14:59:19;17.40;42.10
11140;DHT22;5624;49.388;11.350;2024-03-22T15:01:45;17.40;42.60
11140;DHT22;5624;49.388;11.350;2024-03-22T15:04:11;17.40;43.40
11140;DHT22;5624;49.388;11.350;2024-03-22T15:06:36;17.30;41.80
11140;DHT22;5624;49.388;11.350;2024-03-22T15:09:02;17.30;42.70
11140;DHT22;5624;49.388;11.350;2024-03-22T15:11:34;17.40;43.10
11140;DHT22;5624;49.388;11.350;2024-03-22T15:14:00;17.30;42.60
11140;DHT22;5624;49.388;11.350;2024-03-22T15:16:26;17.30;42.40
11140;DHT22;5624;49.388;11.350;2024-03-22T15:18:51;17.30;43.40
11140;DHT22;5624;49.388;11.350;2024-03-22T15:21:17;17.30;42.70
11140;DHT22;5624;49.388;11.350;2024-03-22T15:23:42;17.40;44.00
11140;DHT22;5624;49.388;11.350;2024-03-22T15:26:08;17.30;41.90
11140;DHT22;5624;49.388;11.350;2024-03-22T15:28:33;17.30;42.70
11140;DHT22;5624;49.388;11.350;2024-03-22T15:30:59;17.20;42.80